Time;durP1;ratioP1;P1;durP2;ratioP2;P2;SDS_P1;SDS_P2;PMS_P1;PMS_P2;Temp;Humidity;BMP_temperature;BMP_pressure;BME280_temperature;BME280_humidity;BME280_pressure;Samples;Min_cycle;Max_cycle;Signal;HPM_P1;HPM_P2
2021/12/31 00:02:08;;;;;;;7.85;4.05;;;12.50;99.90;;;;;;5119844;28;20058;-79
2021/12/31 00:04:34;;;;;;;16.10;4.95;;;12.50;99.90;;;;;;5098938;28;20039;-78
2021/12/31 00:07:01;;;;;;;10.25;3.15;;;12.50;99.90;;;;;;5125543;28;20059;-79
2021/12/31 00:09:28;;;;;;;12.80;4.03;;;12.50;99.90;;;;;;5115209;28;20088;-79
2021/12/31 00:11:54;;;;;;;11.32;3.85;;;12.50;99.90;;;;;;5110411;28;20051;-78
2021/12/31 00:14:22;;;;;;;12.32;3.65;;;12.50;99.90;;;;;;5095515;28;20043;-79
2021/12/31 00:16:49;;;;;;;15.73;3.80;;;12.50;99.90;;;;;;5121136;27;20067;-79
2021/12/31 00:19:15;;;;;;;14.20;3.60;;;12.40;99.90;;;;;;5118238;27;20075;-79
2021/12/31 00:21:45;;;;;;;11.68;3.70;;;12.50;99.90;;;;;;5113346;27;20058;-80
2021/12/31 00:24:12;;;;;;;8.60;3.67;;;12.50;99.90;;;;;;5097547;27;20047;-80
2021/12/31 00:26:38;;;;;;;10.57;3.92;;;12.50;99.90;;;;;;5116185;27;20282;-79
2021/12/31 00:29:05;;;;;;;11.05;4.28;;;12.60;99.90;;;;;;5116229;27;20043;-78
2021/12/31 00:31:31;;;;;;;17.13;3.72;;;12.60;99.90;;;;;;5114276;27;20055;-79
2021/12/31 00:33:58;;;;;;;10.45;3.33;;;12.50;99.90;;;;;;5111486;27;20117;-80
2021/12/31 00:36:24;;;;;;;14.00;4.43;;;12.60;99.90;;;;;;5104792;27;20051;-80
2021/12/31 00:38:51;;;;;;;16.23;3.80;;;12.50;99.90;;;;;;5128941;27;20051;-80
2021/12/31 00:41:18;;;;;;;13.88;3.53;;;12.60;99.90;;;;;;5111518;27;20047;-79
2021/12/31 00:43:44;;;;;;;19.67;4.15;;;12.60;99.90;;;;;;5102330;28;20055;-79
2021/12/31 00:46:11;;;;;;;9.38;2.78;;;12.70;99.90;;;;;;5130007;27;20047;-78
2021/12/31 00:48:37;;;;;;;10.52;3.22;;;12.50;99.90;;;;;;5128082;27;20043;-79
2021/12/31 00:51:04;;;;;;;7.88;3.38;;;12.60;99.90;;;;;;5110402;27;20039;-80
2021/12/31 00:53:30;;;;;;;9.00;3.65;;;12.60;99.90;;;;;;5109442;27;20073;-79
2021/12/31 00:55:57;;;;;;;26.08;4.75;;;12.60;99.90;;;;;;5103866;28;20406;-80
2021/12/31 00:58:23;;;;;;;7.90;3.33;;;12.60;99.90;;;;;;5110814;27;20504;-80
2021/12/31 01:00:50;;;;;;;11.07;3.70;;;12.60;99.90;;;;;;5102690;28;20055;-79
2021/12/31 01:03:17;;;;;;;11.05;3.35;;;12.60;99.90;;;;;;5109096;27;20095;-79
2021/12/31 01:05:43;;;;;;;8.18;3.08;;;12.70;99.90;;;;;;5109240;27;20122;-79
2021/12/31 01:08:10;;;;;;;9.20;2.80;;;12.70;99.90;;;;;;5115382;27;20724;-80
2021/12/31 01:10:37;;;;;;;13.93;4.00;;;12.70;99.90;;;;;;5104541;27;20047;-79
2021/12/31 01:13:09;;;;;;;17.13;4.18;;;12.70;99.90;;;;;;5115302;27;20478;-79
2021/12/31 01:15:39;;;;;;;11.18;4.03;;;12.60;99.90;;;;;;5122091;27;20055;-80
2021/12/31 01:18:20;;;;;;;15.50;3.20;;;12.60;99.90;;;;;;5103749;28;20517;-79
2021/12/31 01:20:46;;;;;;;20.60;4.10;;;12.60;99.90;;;;;;5134026;27;20055;-79
2021/12/31 01:23:15;;;;;;;14.88;3.65;;;12.70;99.90;;;;;;5111324;27;20054;-79
2021/12/31 01:25:42;;;;;;;16.00;4.53;;;12.60;99.90;;;;;;5126505;27;20059;-80
2021/12/31 01:28:08;;;;;;;8.10;3.45;;;12.60;99.90;;;;;;5106071;27;20040;-79
2021/12/31 01:30:35;;;;;;;12.90;4.63;;;12.60;99.90;;;;;;5117646;27;20512;-80
2021/12/31 01:33:01;;;;;;;13.27;3.53;;;12.60;99.90;;;;;;5106545;27;20494;-80
2021/12/31 01:35:28;;;;;;;11.60;3.78;;;12.70;99.90;;;;;;5101468;28;20048;-80
2021/12/31 01:37:54;;;;;;;18.27;4.68;;;12.60;99.90;;;;;;5100086;27;20059;-80
2021/12/31 01:40:21;;;;;;;17.85;3.97;;;12.60;99.90;;;;;;5117368;27;20055;-80
2021/12/31 01:42:48;;;;;;;13.13;3.72;;;12.60;99.90;;;;;;5124085;27;20039;-79
2021/12/31 01:45:17;;;;;;;12.68;4.03;;;12.60;99.90;;;;;;5109113;28;20613;-79
2021/12/31 01:47:56;;;;;;;15.68;4.30;;;12.60;99.90;;;;;;5116684;27;20131;-80
2021/12/31 01:50:23;;;;;;;13.75;4.22;;;12.60;99.90;;;;;;5120512;27;20057;-80
2021/12/31 01:52:49;;;;;;;11.02;4.47;;;12.60;99.90;;;;;;5112660;27;20059;-79
2021/12/31 01:55:16;;;;;;;16.95;4.88;;;12.50;99.90;;;;;;5128668;27;20126;-79
2021/12/31 01:57:43;;;;;;;15.27;3.78;;;12.50;99.90;;;;;;5125475;27;20055;-80
2021/12/31 02:00:09;;;;;;;11.10;4.63;;;12.50;99.90;;;;;;5130777;27;20055;-80
2021/12/31 02:02:36;;;;;;;17.70;5.25;;;12.60;99.90;;;;;;5098181;28;20043;-80
2021/12/31 02:05:02;;;;;;;10.13;3.72;;;12.60;99.90;;;;;;5105638;27;20084;-78
2021/12/31 02:07:29;;;;;;;14.40;4.22;;;12.60;99.90;;;;;;5103118;27;20046;-80
2021/12/31 02:09:55;;;;;;;17.05;4.40;;;12.50;99.90;;;;;;5103272;27;20046;-80
2021/12/31 02:12:22;;;;;;;19.83;4.78;;;12.50;99.90;;;;;;5099228;27;20051;-78
2021/12/31 02:14:49;;;;;;;15.90;5.60;;;12.60;99.90;;;;;;5101127;27;20423;-80
2021/12/31 02:17:15;;;;;;;14.25;4.70;;;12.50;99.90;;;;;;5119083;27;20393;-78
2021/12/31 02:19:44;;;;;;;19.65;5.88;;;12.60;99.90;;;;;;5112274;27;20413;-79
2021/12/31 02:22:10;;;;;;;13.95;4.50;;;12.50;99.90;;;;;;5100237;28;20073;-78
2021/12/31 02:24:37;;;;;;;17.42;4.43;;;12.50;99.90;;;;;;5108027;27;20073;-80
2021/12/31 02:27:03;;;;;;;11.18;5.07;;;12.50;99.90;;;;;;5100369;27;20047;-78
2021/12/31 02:29:30;;;;;;;17.25;5.05;;;12.60;99.90;;;;;;5128800;27;20375;-79
2021/12/31 02:31:57;;;;;;;27.42;5.53;;;12.40;99.90;;;;;;5107706;28;20047;-80
2021/12/31 02:34:23;;;;;;;13.77;4.38;;;12.40;99.90;;;;;;5110741;28;20063;-79
2021/12/31 02:36:50;;;;;;;10.25;4.53;;;12.30;99.90;;;;;;5095843;28;20048;-80
2021/12/31 02:39:16;;;;;;;11.85;4.18;;;12.40;99.90;;;;;;5097487;28;20044;-79
2021/12/31 02:41:44;;;;;;;9.93;4.28;;;12.40;99.90;;;;;;5095575;28;20043;-80
2021/12/31 02:44:10;;;;;;;13.00;4.90;;;12.40;99.90;;;;;;5094092;28;20039;-79
2021/12/31 02:46:37;;;;;;;11.23;4.38;;;12.50;99.90;;;;;;5104418;28;20051;-80
2021/12/31 02:49:03;;;;;;;12.20;4.93;;;12.40;99.90;;;;;;5104000;28;20051;-79
2021/12/31 02:51:30;;;;;;;12.88;5.57;;;12.50;99.90;;;;;;5104350;28;20406;-79
2021/12/31 02:53:57;;;;;;;15.13;4.57;;;12.50;99.90;;;;;;5094128;28;20475;-79
2021/12/31 02:56:23;;;;;;;17.35;4.93;;;12.50;99.90;;;;;;5105236;28;20566;-79
2021/12/31 02:58:50;;;;;;;17.45;5.43;;;12.50;99.90;;;;;;5103331;28;20490;-79
2021/12/31 03:01:16;;;;;;;14.18;5.63;;;12.50;99.90;;;;;;5095410;28;20048;-79
2021/12/31 03:03:43;;;;;;;16.83;4.50;;;12.50;99.90;;;;;;5097329;28;20052;-79
2021/12/31 03:06:09;;;;;;;22.92;5.80;;;12.70;99.90;;;;;;5101520;28;20630;-80
2021/12/31 03:08:36;;;;;;;16.83;4.65;;;12.60;99.90;;;;;;5091842;28;20048;-81
2021/12/31 03:11:02;;;;;;;19.85;5.80;;;12.60;99.90;;;;;;5104741;28;20525;-80
2021/12/31 03:13:29;;;;;;;7.85;3.90;;;12.70;99.90;;;;;;5102594;28;20052;-79
2021/12/31 03:15:55;;;;;;;21.55;4.88;;;12.70;99.90;;;;;;5098799;28;20047;-80
2021/12/31 03:18:22;;;;;;;9.43;4.57;;;12.70;99.90;;;;;;5106184;28;20059;-78
2021/12/31 03:21:00;;;;;;;6.53;4.05;;;12.80;99.90;;;;;;5107044;28;20051;-79
2021/12/31 03:23:27;;;;;;;6.30;4.03;;;12.70;99.90;;;;;;5093991;28;20048;-80
2021/12/31 03:25:53;;;;;;;16.92;4.10;;;12.80;99.90;;;;;;5094321;28;20050;-79
2021/12/31 03:28:20;;;;;;;12.40;4.53;;;12.70;99.90;;;;;;5106125;28;20051;-79
2021/12/31 03:30:46;;;;;;;13.02;4.68;;;12.70;99.90;;;;;;5104366;28;20059;-79
2021/12/31 03:33:13;;;;;;;16.55;4.10;;;12.70;99.90;;;;;;5094858;28;20086;-80
2021/12/31 03:35:39;;;;;;;9.82;3.50;;;12.70;99.90;;;;;;5094019;28;20131;-81
2021/12/31 03:38:06;;;;;;;12.48;4.22;;;12.70;99.90;;;;;;5094432;28;20055;-78
2021/12/31 03:40:32;;;;;;;10.02;4.30;;;12.70;99.90;;;;;;5107779;28;20039;-79
2021/12/31 03:42:59;;;;;;;16.17;4.50;;;12.80;99.90;;;;;;5099839;28;20054;-79
2021/12/31 03:45:26;;;;;;;5.15;2.92;;;12.80;99.90;;;;;;5092116;28;20048;-79
2021/12/31 03:47:52;;;;;;;11.75;3.97;;;12.90;99.90;;;;;;5106904;28;20059;-80
2021/12/31 03:50:19;;;;;;;18.05;5.00;;;12.90;99.90;;;;;;5101999;28;20070;-79
2021/12/31 03:52:45;;;;;;;10.32;4.10;;;13.00;99.90;;;;;;5114675;28;20063;-79
2021/12/31 03:55:12;;;;;;;13.50;4.93;;;12.90;99.90;;;;;;5111039;28;20108;-79
2021/12/31 03:57:38;;;;;;;8.05;4.72;;;13.00;99.90;;;;;;5114200;28;20044;-80
2021/12/31 04:00:05;;;;;;;15.13;4.30;;;12.90;99.90;;;;;;5098054;28;20059;-79
2021/12/31 04:02:32;;;;;;;7.13;4.07;;;13.00;99.90;;;;;;5113558;28;20124;-79
2021/12/31 04:04:58;;;;;;;8.38;4.47;;;13.00;99.90;;;;;;5108462;28;20407;-79
2021/12/31 04:07:25;;;;;;;12.35;4.63;;;13.00;99.90;;;;;;5099469;28;20411;-79
2021/12/31 04:09:51;;;;;;;18.58;4.10;;;13.10;99.90;;;;;;5108130;28;20380;-79
2021/12/31 04:12:18;;;;;;;8.90;3.67;;;13.10;99.90;;;;;;5100035;28;20516;-79
2021/12/31 04:14:44;;;;;;;8.38;4.13;;;13.00;99.90;;;;;;5106663;28;20056;-80
2021/12/31 04:17:11;;;;;;;5.07;3.17;;;13.00;99.90;;;;;;5096400;28;20054;-78
2021/12/31 04:19:37;;;;;;;11.15;3.28;;;13.00;99.90;;;;;;5098627;28;20048;-80
2021/12/31 04:22:04;;;;;;;7.15;3.65;;;13.10;99.90;;;;;;5106328;28;20048;-78
2021/12/31 04:24:51;;;;;;;5.82;3.10;;;13.00;99.90;;;;;;5107294;28;20067;-79
2021/12/31 04:27:17;;;;;;;10.68;3.83;;;13.00;99.90;;;;;;5108331;28;20116;-79
2021/12/31 04:29:50;;;;;;;7.35;2.70;;;13.00;99.90;;;;;;5102984;28;20048;-80
2021/12/31 04:32:16;;;;;;;5.72;3.47;;;13.00;99.90;;;;;;5103158;28;20052;-79
2021/12/31 04:34:43;;;;;;;5.47;2.65;;;13.00;99.90;;;;;;5108823;28;20059;-80
2021/12/31 04:37:09;;;;;;;5.07;2.45;;;13.00;99.90;;;;;;5103110;28;20131;-79
2021/12/31 04:39:36;;;;;;;15.13;3.20;;;13.00;99.90;;;;;;5107068;28;20052;-79
2021/12/31 04:42:03;;;;;;;7.50;2.65;;;13.00;99.90;;;;;;5097044;28;20067;-79
2021/12/31 04:44:29;;;;;;;9.52;2.90;;;12.90;99.90;;;;;;5102754;28;20104;-79
2021/12/31 04:46:56;;;;;;;10.00;2.85;;;13.00;99.90;;;;;;5096379;28;20040;-80
2021/12/31 04:49:22;;;;;;;9.15;3.20;;;13.00;99.90;;;;;;5098701;28;20130;-80
2021/12/31 04:51:49;;;;;;;7.35;2.38;;;13.10;99.90;;;;;;5097069;28;20434;-79
2021/12/31 04:54:16;;;;;;;8.20;3.00;;;13.00;99.90;;;;;;5098256;28;20048;-80
2021/12/31 04:56:43;;;;;;;10.43;3.75;;;13.00;99.90;;;;;;5113683;28;20047;-80
2021/12/31 04:59:10;;;;;;;4.72;2.10;;;13.00;99.90;;;;;;5104348;28;20070;-80
2021/12/31 05:01:36;;;;;;;8.70;2.63;;;13.10;99.90;;;;;;5106933;28;20511;-78
2021/12/31 05:04:04;;;;;;;7.65;2.72;;;13.10;99.90;;;;;;5097036;28;20074;-80
2021/12/31 05:06:30;;;;;;;4.18;2.33;;;13.10;99.90;;;;;;5103407;28;20052;-79
2021/12/31 05:08:57;;;;;;;5.93;2.60;;;13.10;99.90;;;;;;5097417;28;20059;-80
2021/12/31 05:11:23;;;;;;;2.85;2.30;;;13.30;99.90;;;;;;5100475;28;20052;-80
2021/12/31 05:13:50;;;;;;;7.57;2.50;;;13.20;99.90;;;;;;5107976;28;20397;-81
2021/12/31 05:16:17;;;;;;;9.63;3.28;;;13.20;99.90;;;;;;5109670;28;20132;-79
2021/12/31 05:18:43;;;;;;;7.13;2.90;;;13.20;99.90;;;;;;5097599;28;20055;-79
2021/12/31 05:21:10;;;;;;;4.10;2.75;;;13.20;99.90;;;;;;5099595;28;20090;-79
2021/12/31 05:23:36;;;;;;;6.07;3.08;;;13.20;99.90;;;;;;5109046;28;20070;-80
2021/12/31 05:26:03;;;;;;;12.93;3.20;;;13.10;99.90;;;;;;5099673;27;20513;-80
2021/12/31 05:28:32;;;;;;;5.90;3.42;;;13.10;99.90;;;;;;5095164;28;20380;-80
2021/12/31 05:30:58;;;;;;;5.85;3.70;;;13.00;99.90;;;;;;5094075;28;20056;-80
2021/12/31 05:33:25;;;;;;;5.22;4.30;;;13.00;99.90;;;;;;5119548;27;20063;-80
2021/12/31 05:35:51;;;;;;;11.73;5.28;;;13.00;99.90;;;;;;5100289;28;20062;-81
2021/12/31 05:38:18;;;;;;;10.52;5.05;;;13.00;99.90;;;;;;5102749;28;20047;-80
2021/12/31 05:40:45;;;;;;;14.80;6.22;;;13.00;99.90;;;;;;5103999;27;20058;-80
2021/12/31 05:43:11;;;;;;;8.80;5.60;;;12.90;99.90;;;;;;5103558;28;20044;-80
2021/12/31 05:45:39;;;;;;;9.43;6.32;;;13.00;99.90;;;;;;5119487;27;20051;-79
2021/12/31 05:48:06;;;;;;;11.90;5.85;;;13.00;99.90;;;;;;5104367;28;20129;-80
2021/12/31 05:50:33;;;;;;;13.02;6.20;;;13.00;99.90;;;;;;5107493;27;20050;-80
2021/12/31 05:52:59;;;;;;;8.27;5.20;;;13.10;99.90;;;;;;5125122;27;20047;-80
2021/12/31 05:55:26;;;;;;;7.18;5.20;;;13.10;99.90;;;;;;5105647;27;20055;-80
2021/12/31 05:57:52;;;;;;;6.95;5.70;;;13.00;99.90;;;;;;5110593;28;20039;-80
2021/12/31 06:00:19;;;;;;;13.95;6.32;;;13.10;99.90;;;;;;5097675;28;20058;-80
2021/12/31 06:02:45;;;;;;;7.95;4.82;;;13.00;99.90;;;;;;5118835;27;20055;-79
2021/12/31 06:05:12;;;;;;;11.07;4.78;;;13.10;99.90;;;;;;5103112;27;20051;-78
2021/12/31 06:07:38;;;;;;;8.80;5.15;;;13.00;99.90;;;;;;5128235;27;20047;-79
2021/12/31 06:10:05;;;;;;;6.30;4.30;;;13.00;99.90;;;;;;5104014;28;20048;-79
2021/12/31 06:12:31;;;;;;;6.97;4.28;;;12.90;99.90;;;;;;5107974;27;20062;-80
2021/12/31 06:14:59;;;;;;;9.98;4.35;;;13.00;99.90;;;;;;5126172;27;20048;-80
2021/12/31 06:17:27;;;;;;;14.52;4.28;;;13.00;99.90;;;;;;5107001;27;20053;-79
2021/12/31 06:19:54;;;;;;;5.72;4.60;;;13.00;99.90;;;;;;5104627;28;20061;-80
2021/12/31 06:22:20;;;;;;;6.72;4.40;;;13.00;99.90;;;;;;5107320;27;20047;-80
2021/12/31 06:24:47;;;;;;;4.95;4.10;;;13.00;99.90;;;;;;5097304;27;20110;-80
2021/12/31 06:27:13;;;;;;;7.72;4.53;;;13.00;99.90;;;;;;5119855;27;20047;-80
2021/12/31 06:29:40;;;;;;;6.43;4.10;;;13.00;99.90;;;;;;5121938;27;20050;-79
2021/12/31 06:32:06;;;;;;;4.80;4.07;;;13.00;99.90;;;;;;5102165;28;20116;-79
2021/12/31 06:34:33;;;;;;;6.00;4.00;;;13.10;99.90;;;;;;5110909;27;20329;-80
2021/12/31 06:36:59;;;;;;;6.22;4.32;;;13.10;99.90;;;;;;5111063;27;20051;-80
2021/12/31 06:39:27;;;;;;;9.82;4.07;;;13.10;99.90;;;;;;5101433;28;20051;-79
2021/12/31 06:41:53;;;;;;;7.80;4.15;;;13.10;99.90;;;;;;5105968;27;20424;-80
2021/12/31 06:44:20;;;;;;;11.40;4.68;;;13.10;99.90;;;;;;5108906;28;20135;-80
2021/12/31 06:46:46;;;;;;;6.38;3.53;;;13.00;99.90;;;;;;5106491;27;20047;-80
2021/12/31 06:49:13;;;;;;;10.25;3.80;;;13.10;99.90;;;;;;5099389;27;20337;-80
2021/12/31 06:51:39;;;;;;;6.00;3.60;;;13.00;99.90;;;;;;5104764;28;20051;-79
2021/12/31 06:54:06;;;;;;;9.02;3.35;;;13.00;99.90;;;;;;5102067;27;20049;-80
2021/12/31 06:56:32;;;;;;;5.00;3.53;;;13.00;99.90;;;;;;5128310;27;20043;-80
2021/12/31 06:58:59;;;;;;;8.80;3.28;;;13.00;99.90;;;;;;5118782;27;20039;-80
2021/12/31 07:01:26;;;;;;;7.03;3.50;;;12.90;99.90;;;;;;5120751;27;20126;-80
2021/12/31 07:03:52;;;;;;;8.27;3.72;;;13.00;99.90;;;;;;5102072;27;20062;-80
2021/12/31 07:06:19;;;;;;;7.97;3.88;;;12.90;99.90;;;;;;5099986;27;20035;-80
2021/12/31 07:08:45;;;;;;;7.43;3.53;;;12.90;99.90;;;;;;5095527;28;20081;-80
2021/12/31 07:11:12;;;;;;;11.05;3.67;;;12.90;99.90;;;;;;5094318;28;20036;-80
2021/12/31 07:13:39;;;;;;;3.38;2.55;;;12.80;99.90;;;;;;5114207;27;20043;-81
2021/12/31 07:16:05;;;;;;;6.50;2.95;;;12.90;99.90;;;;;;5113147;27;20050;-81
2021/12/31 07:18:32;;;;;;;4.57;3.00;;;12.90;99.90;;;;;;5097739;28;20130;-80
2021/12/31 07:20:58;;;;;;;3.70;2.78;;;12.90;99.90;;;;;;5094569;28;20069;-81
2021/12/31 07:23:25;;;;;;;13.15;4.00;;;12.90;99.90;;;;;;5096029;28;20126;-81
2021/12/31 07:25:52;;;;;;;3.63;3.10;;;12.90;99.90;;;;;;5096235;28;20043;-80
2021/12/31 07:28:18;;;;;;;7.47;3.28;;;12.90;99.90;;;;;;5094025;28;20051;-80
2021/12/31 07:30:45;;;;;;;5.32;2.90;;;12.90;99.90;;;;;;5113011;28;20062;-81
2021/12/31 07:33:13;;;;;;;5.00;2.97;;;12.90;99.90;;;;;;5094058;27;20101;-80
2021/12/31 07:35:39;;;;;;;5.18;3.80;;;12.90;99.90;;;;;;5095778;28;20048;-81
2021/12/31 07:38:06;;;;;;;5.60;3.70;;;12.90;99.90;;;;;;5094110;28;20052;-81
2021/12/31 07:40:39;;;;;;;4.93;3.45;;;12.80;99.90;;;;;;5095199;28;20044;-81
2021/12/31 07:43:06;;;;;;;3.55;2.85;;;12.80;99.90;;;;;;5095692;28;20063;-80
2021/12/31 07:45:32;;;;;;;4.00;3.58;;;12.80;99.90;;;;;;5115731;28;20046;-80
2021/12/31 07:47:59;;;;;;;8.55;3.03;;;12.80;99.90;;;;;;5103535;28;20048;-81
2021/12/31 07:50:25;;;;;;;5.28;3.00;;;12.80;99.90;;;;;;5115433;28;20051;-80
2021/12/31 07:52:52;;;;;;;4.45;2.70;;;12.80;99.90;;;;;;5099178;28;20048;-80
2021/12/31 07:55:18;;;;;;;3.75;2.95;;;12.70;99.90;;;;;;5093865;28;20126;-80
2021/12/31 07:57:45;;;;;;;6.97;3.80;;;12.70;99.90;;;;;;5096044;28;20043;-80
2021/12/31 08:00:11;;;;;;;3.20;2.90;;;12.70;99.90;;;;;;5097625;28;20040;-80
2021/12/31 08:02:38;;;;;;;8.90;4.07;;;12.80;99.90;;;;;;5117811;28;20418;-80
2021/12/31 08:05:04;;;;;;;6.20;3.47;;;12.70;99.90;;;;;;5098575;28;20081;-80
2021/12/31 08:07:31;;;;;;;5.00;3.33;;;12.70;99.90;;;;;;5098185;28;20055;-79
2021/12/31 08:09:57;;;;;;;3.67;3.28;;;12.70;99.90;;;;;;5095647;28;20070;-80
2021/12/31 08:12:24;;;;;;;5.35;2.38;;;12.70;99.90;;;;;;5111363;28;20054;-81
2021/12/31 08:14:51;;;;;;;8.20;3.53;;;12.70;99.90;;;;;;5116005;28;20050;-80
2021/12/31 08:17:17;;;;;;;7.20;3.17;;;12.70;99.90;;;;;;5094735;28;20039;-81
2021/12/31 08:19:44;;;;;;;12.05;3.60;;;12.60;99.90;;;;;;5100826;28;20055;-80
2021/12/31 08:22:10;;;;;;;5.57;2.92;;;12.70;99.90;;;;;;5112167;28;20046;-80
2021/12/31 08:24:37;;;;;;;5.82;3.13;;;12.70;99.90;;;;;;5112795;28;20047;-80
2021/12/31 08:27:03;;;;;;;4.32;3.33;;;12.70;99.90;;;;;;5094942;28;20078;-81
2021/12/31 08:29:30;;;;;;;4.03;3.15;;;12.70;99.90;;;;;;5111054;28;20047;-81
2021/12/31 08:31:56;;;;;;;3.35;2.90;;;12.70;99.90;;;;;;5094048;28;20046;-81
2021/12/31 08:34:23;;;;;;;6.68;3.65;;;12.70;99.90;;;;;;5093305;28;20043;-80
2021/12/31 08:36:49;;;;;;;5.72;2.95;;;12.70;99.90;;;;;;5098157;28;20051;-80
2021/12/31 08:39:16;;;;;;;5.43;3.53;;;12.70;99.90;;;;;;5115487;27;20044;-81
2021/12/31 08:41:43;;;;;;;7.63;3.10;;;12.70;99.90;;;;;;5099796;28;20054;-80
2021/12/31 08:44:09;;;;;;;5.80;3.67;;;12.70;99.90;;;;;;5097405;27;20047;-80
2021/12/31 08:46:36;;;;;;;6.95;3.33;;;12.70;99.90;;;;;;5098685;28;20046;-80
2021/12/31 08:49:02;;;;;;;4.85;3.35;;;12.60;99.90;;;;;;5099542;27;20051;-80
2021/12/31 08:51:29;;;;;;;6.25;3.72;;;12.70;99.90;;;;;;5099148;27;20043;-80
2021/12/31 08:53:55;;;;;;;11.02;3.63;;;12.60;99.90;;;;;;5102612;28;20047;-80
2021/12/31 08:56:22;;;;;;;7.50;3.65;;;12.60;99.90;;;;;;5098912;27;20043;-80
2021/12/31 08:58:49;;;;;;;8.13;3.28;;;12.60;99.90;;;;;;5097236;28;20047;-80
2021/12/31 09:01:15;;;;;;;5.30;3.33;;;12.60;99.90;;;;;;5101819;27;20054;-79
2021/12/31 09:03:42;;;;;;;5.03;3.13;;;12.70;99.90;;;;;;5115838;27;20048;-79
2021/12/31 09:06:08;;;;;;;5.85;3.33;;;12.70;99.90;;;;;;5100785;27;20055;-80
2021/12/31 09:08:35;;;;;;;6.60;3.42;;;12.80;99.90;;;;;;5121343;27;20039;-81
2021/12/31 09:11:01;;;;;;;7.18;3.20;;;12.80;99.90;;;;;;5100809;27;20058;-81
2021/12/31 09:13:28;;;;;;;7.95;3.75;;;12.80;99.90;;;;;;5104836;27;20051;-80
2021/12/31 09:15:55;;;;;;;7.15;4.20;;;12.80;99.90;;;;;;5117109;27;20502;-81
2021/12/31 09:18:21;;;;;;;7.18;4.22;;;12.90;99.90;;;;;;5095054;27;20039;-80
2021/12/31 09:20:48;;;;;;;8.15;3.92;;;12.80;99.90;;;;;;5117450;27;20074;-80
2021/12/31 09:23:14;;;;;;;7.38;3.70;;;12.90;99.90;;;;;;5124208;27;20055;-80
2021/12/31 09:25:41;;;;;;;5.97;4.15;;;12.90;99.90;;;;;;5096872;28;20058;-80
2021/12/31 09:28:07;;;;;;;6.38;4.63;;;12.80;99.90;;;;;;5098253;28;20047;-79
2021/12/31 09:30:34;;;;;;;6.75;4.18;;;12.90;99.90;;;;;;5115135;27;20052;-79
2021/12/31 09:33:01;;;;;;;11.13;4.45;;;12.80;99.90;;;;;;5097715;27;20048;-79
2021/12/31 09:35:27;;;;;;;6.60;4.70;;;12.90;99.90;;;;;;5101012;27;20049;-80
2021/12/31 09:37:54;;;;;;;4.47;4.07;;;12.80;99.90;;;;;;5118826;27;20048;-79
2021/12/31 09:40:20;;;;;;;7.60;4.70;;;12.80;99.90;;;;;;5113450;27;20055;-79
2021/12/31 09:42:47;;;;;;;5.57;4.55;;;12.80;99.90;;;;;;5100237;27;20050;-80
2021/12/31 09:45:13;;;;;;;8.35;4.30;;;12.80;99.90;;;;;;5095301;28;20059;-80
2021/12/31 09:47:40;;;;;;;7.78;5.35;;;12.80;99.90;;;;;;5114797;27;20047;-80
2021/12/31 09:50:06;;;;;;;5.82;5.03;;;12.90;99.90;;;;;;5096616;27;20079;-79
2021/12/31 09:52:33;;;;;;;5.10;4.13;;;12.90;99.90;;;;;;5103950;28;20065;-80
2021/12/31 09:55:00;;;;;;;7.38;4.90;;;12.90;99.90;;;;;;5111574;28;20043;-80
2021/12/31 09:57:26;;;;;;;9.90;4.65;;;13.00;99.90;;;;;;5095956;28;20060;-79
2021/12/31 09:59:54;;;;;;;9.18;5.00;;;13.00;99.90;;;;;;5097172;27;20052;-80
2021/12/31 10:02:20;;;;;;;6.38;4.07;;;13.00;99.90;;;;;;5103551;27;20126;-79
2021/12/31 10:04:47;;;;;;;7.10;4.22;;;13.00;99.90;;;;;;5120852;27;20047;-79
2021/12/31 10:07:20;;;;;;;6.43;3.85;;;12.90;99.90;;;;;;5097926;28;20458;-80
2021/12/31 10:09:47;;;;;;;9.40;4.63;;;12.90;99.90;;;;;;5097849;28;20039;-79
2021/12/31 10:12:13;;;;;;;10.02;4.47;;;12.90;99.90;;;;;;5097309;28;20043;-79
2021/12/31 10:14:40;;;;;;;8.75;3.97;;;12.90;99.90;;;;;;5115438;27;20058;-79
2021/12/31 10:17:06;;;;;;;8.52;4.45;;;12.90;99.90;;;;;;5097089;28;20066;-79
2021/12/31 10:19:33;;;;;;;7.93;4.63;;;12.80;99.90;;;;;;5113433;27;20048;-79
2021/12/31 10:22:00;;;;;;;5.88;3.65;;;12.90;99.90;;;;;;5117462;27;20081;-79
2021/12/31 10:24:26;;;;;;;9.18;3.65;;;12.90;99.90;;;;;;5117156;27;20072;-78
2021/12/31 10:26:53;;;;;;;5.53;4.07;;;12.90;99.90;;;;;;5116948;27;20051;-79
2021/12/31 10:29:20;;;;;;;7.20;3.95;;;12.90;99.90;;;;;;5120029;27;20039;-80
2021/12/31 10:31:46;;;;;;;6.22;4.32;;;12.90;99.90;;;;;;5109615;27;20075;-79
2021/12/31 10:34:13;;;;;;;5.72;4.22;;;12.90;99.90;;;;;;5102587;27;20047;-80
2021/12/31 10:36:39;;;;;;;9.95;5.03;;;12.90;99.90;;;;;;5103861;27;20054;-79
2021/12/31 10:39:06;;;;;;;9.57;4.30;;;12.90;99.90;;;;;;5105063;27;20051;-79
2021/12/31 10:41:32;;;;;;;6.15;4.38;;;12.90;99.90;;;;;;5101469;27;20047;-79
2021/12/31 10:43:59;;;;;;;7.20;4.53;;;12.90;99.90;;;;;;5097359;27;20529;-79
2021/12/31 10:46:26;;;;;;;9.02;4.25;;;12.90;99.90;;;;;;5104098;27;20048;-79
2021/12/31 10:48:52;;;;;;;8.18;4.63;;;12.80;99.90;;;;;;5113461;27;20118;-79
2021/12/31 10:51:19;;;;;;;6.22;4.82;;;12.70;99.90;;;;;;5105840;27;20057;-79
2021/12/31 10:53:51;;;;;;;11.60;4.95;;;12.80;99.90;;;;;;5106701;27;20418;-79
2021/12/31 10:56:17;;;;;;;6.80;4.85;;;12.60;99.90;;;;;;5113557;27;20050;-79
2021/12/31 10:58:44;;;;;;;8.82;3.95;;;12.60;99.90;;;;;;5102794;28;20054;-79
2021/12/31 11:01:12;;;;;;;10.70;5.25;;;12.60;99.90;;;;;;5100816;28;20048;-79
2021/12/31 11:03:38;;;;;;;7.25;5.00;;;12.50;99.90;;;;;;5122074;27;20074;-78
2021/12/31 11:06:07;;;;;;;8.40;5.32;;;12.70;99.90;;;;;;5124734;27;20054;-79
2021/12/31 11:08:34;;;;;;;7.32;4.88;;;12.60;99.90;;;;;;5111478;27;20851;-79
2021/12/31 11:11:00;;;;;;;11.20;6.00;;;12.50;99.90;;;;;;5105685;27;20389;-79
2021/12/31 11:13:28;;;;;;;9.10;7.30;;;12.50;99.90;;;;;;5103331;28;20085;-80
2021/12/31 11:15:55;;;;;;;15.85;11.15;;;12.60;99.90;;;;;;5094390;28;20588;-79
2021/12/31 11:18:23;;;;;;;20.60;9.98;;;12.50;99.90;;;;;;5102668;28;20071;-80
2021/12/31 11:20:50;;;;;;;10.98;6.93;;;12.50;99.90;;;;;;5103905;27;20073;-79
2021/12/31 11:23:16;;;;;;;12.32;6.53;;;12.40;99.90;;;;;;5101634;28;20509;-79
2021/12/31 11:25:43;;;;;;;8.13;5.47;;;12.50;99.90;;;;;;5110660;27;20047;-79
2021/12/31 11:28:09;;;;;;;8.88;5.40;;;12.50;99.90;;;;;;5108049;28;20047;-79
2021/12/31 11:30:37;;;;;;;8.57;5.15;;;12.50;99.90;;;;;;5095453;27;20059;-80
2021/12/31 11:33:04;;;;;;;6.80;5.32;;;12.50;99.90;;;;;;5121503;27;20047;-80
2021/12/31 11:35:30;;;;;;;12.30;5.03;;;12.50;99.90;;;;;;5093746;28;20804;-81
2021/12/31 11:37:57;;;;;;;8.23;4.78;;;12.60;99.90;;;;;;5095409;28;20055;-80
2021/12/31 11:40:23;;;;;;;8.18;5.35;;;12.50;99.90;;;;;;5097786;28;20061;-81
2021/12/31 11:42:50;;;;;;;8.05;4.93;;;12.50;99.90;;;;;;5121898;28;20077;-79
2021/12/31 11:45:16;;;;;;;6.45;4.93;;;12.40;99.90;;;;;;5095279;28;20051;-80
2021/12/31 11:47:43;;;;;;;10.02;5.68;;;12.40;99.90;;;;;;5115524;28;20055;-80
2021/12/31 11:50:10;;;;;;;9.43;5.43;;;12.30;99.90;;;;;;5111055;28;20054;-80
2021/12/31 11:52:36;;;;;;;8.70;5.38;;;12.30;99.90;;;;;;5097801;28;20057;-80
2021/12/31 11:55:03;;;;;;;10.13;5.20;;;12.20;99.90;;;;;;5097201;28;20061;-80
2021/12/31 11:57:29;;;;;;;8.48;5.13;;;12.20;99.90;;;;;;5106131;28;20058;-80
2021/12/31 11:59:56;;;;;;;8.98;5.25;;;12.20;99.90;;;;;;5092493;28;20059;-80
2021/12/31 12:02:23;;;;;;;9.00;5.25;;;12.10;99.90;;;;;;5098638;28;20581;-79
2021/12/31 12:04:49;;;;;;;11.00;5.35;;;12.10;99.90;;;;;;5107227;28;20055;-80
2021/12/31 12:07:16;;;;;;;10.25;5.15;;;12.10;99.90;;;;;;5105963;28;20070;-80
2021/12/31 12:09:42;;;;;;;8.40;5.97;;;12.00;99.90;;;;;;5104400;27;20051;-80
2021/12/31 12:12:10;;;;;;;14.27;7.15;;;12.00;99.90;;;;;;5103355;28;20047;-79
2021/12/31 12:14:36;;;;;;;13.70;6.60;;;12.00;99.90;;;;;;5101698;28;20446;-79
2021/12/31 12:17:03;;;;;;;8.82;6.28;;;12.00;99.90;;;;;;5104479;27;20470;-79
2021/12/31 12:19:30;;;;;;;8.05;5.45;;;11.90;99.90;;;;;;5121504;27;20525;-80
2021/12/31 12:21:56;;;;;;;9.45;5.40;;;11.90;99.90;;;;;;5102653;27;20497;-80
2021/12/31 12:24:23;;;;;;;11.32;7.10;;;11.90;99.90;;;;;;5127388;27;20075;-80
2021/12/31 12:26:49;;;;;;;11.57;7.00;;;11.80;99.90;;;;;;5105600;27;20054;-81
2021/12/31 12:29:16;;;;;;;9.63;6.68;;;11.80;99.90;;;;;;5113561;27;20058;-81
2021/12/31 12:31:50;;;;;;;12.32;7.32;;;11.80;99.90;;;;;;5105931;28;20055;-81
2021/12/31 12:34:16;;;;;;;11.75;7.32;;;11.80;99.90;;;;;;5117990;27;20062;-81
2021/12/31 12:36:43;;;;;;;7.40;6.70;;;11.80;99.90;;;;;;5101825;28;20062;-81
2021/12/31 12:39:10;;;;;;;11.95;7.07;;;11.80;99.90;;;;;;5104252;27;20482;-81
2021/12/31 12:41:36;;;;;;;9.75;7.43;;;11.80;99.90;;;;;;5110231;27;20047;-80